sensor_id;sensor_type;location;lat;lon;timestamp;P1;P2;P0
42002;PMS7003;27693;50.506;30.832;2023-07-29T00:00:29;10.70;9.00;7.40
42002;PMS7003;27693;50.506;30.832;2023-07-29T00:01:31;10.60;7.70;6.40
42002;PMS7003;27693;50.506;30.832;2023-07-29T00:02:36;8.40;8.00;6.90
42002;PMS7003;27693;50.506;30.832;2023-07-29T00:03:38;9.82;9.00;7.73
42002;PMS7003;27693;50.506;30.832;2023-07-29T00:04:41;7.30;7.30;7.00
42002;PMS7003;27693;50.506;30.832;2023-07-29T00:05:43;8.30;6.90;6.00
42002;PMS7003;27693;50.506;30.832;2023-07-29T00:06:48;10.20;8.90;7.70
42002;PMS7003;27693;50.506;30.832;2023-07-29T00:07:50;9.80;8.90;7.30
42002;PMS7003;27693;50.506;30.832;2023-07-29T00:08:52;7.90;7.50;6.70
42002;PMS7003;27693;50.506;30.832;2023-07-29T00:09:56;10.30;7.70;6.70
42002;PMS7003;27693;50.506;30.832;2023-07-29T00:11:00;11.20;8.50;7.60
42002;PMS7003;27693;50.506;30.832;2023-07-29T00:12:03;6.90;6.80;6.60
42002;PMS7003;27693;50.506;30.832;2023-07-29T00:13:05;8.90;8.60;7.60
42002;PMS7003;27693;50.506;30.832;2023-07-29T00:14:09;9.60;8.20;7.20
42002;PMS7003;27693;50.506;30.832;2023-07-29T00:15:11;9.40;9.00;7.60
42002;PMS7003;27693;50.506;30.832;2023-07-29T00:16:14;9.00;8.55;7.18
42002;PMS7003;27693;50.506;30.832;2023-07-29T00:17:18;7.20;7.00;5.60
42002;PMS7003;27693;50.506;30.832;2023-07-29T00:18:22;9.00;8.30;7.70
42002;PMS7003;27693;50.506;30.832;2023-07-29T00:19:25;7.90;7.40;6.30
42002;PMS7003;27693;50.506;30.832;2023-07-29T00:20:28;12.10;9.30;8.40
42002;PMS7003;27693;50.506;30.832;2023-07-29T00:21:31;8.90;8.10;7.50
42002;PMS7003;27693;50.506;30.832;2023-07-29T00:22:34;7.70;7.70;5.80
42002;PMS7003;27693;50.506;30.832;2023-07-29T00:23:36;9.30;8.50;6.80
42002;PMS7003;27693;50.506;30.832;2023-07-29T00:24:39;10.80;9.20;7.70
42002;PMS7003;27693;50.506;30.832;2023-07-29T00:25:42;11.40;10.00;8.20
42002;PMS7003;27693;50.506;30.832;2023-07-29T00:26:45;9.73;8.09;7.27
42002;PMS7003;27693;50.506;30.832;2023-07-29T00:27:47;10.00;9.30;7.90
42002;PMS7003;27693;50.506;30.832;2023-07-29T00:28:49;2.40;1.90;0.40
42002;PMS7003;27693;50.506;30.832;2023-07-29T00:29:52;10.30;8.00;7.10
42002;PMS7003;27693;50.506;30.832;2023-07-29T00:30:55;9.70;8.60;7.60
42002;PMS7003;27693;50.506;30.832;2023-07-29T00:31:59;10.40;8.10;7.30
42002;PMS7003;27693;50.506;30.832;2023-07-29T00:33:01;9.36;8.64;7.00
42002;PMS7003;27693;50.506;30.832;2023-07-29T00:34:04;8.80;7.20;7.20
42002;PMS7003;27693;50.506;30.832;2023-07-29T00:35:07;10.10;8.70;7.90
42002;PMS7003;27693;50.506;30.832;2023-07-29T00:36:12;9.80;9.00;7.90
42002;PMS7003;27693;50.506;30.832;2023-07-29T00:37:14;9.45;8.09;6.91
42002;PMS7003;27693;50.506;30.832;2023-07-29T00:38:17;9.90;9.30;7.70
42002;PMS7003;27693;50.506;30.832;2023-07-29T00:39:19;10.50;9.60;7.80
42002;PMS7003;27693;50.506;30.832;2023-07-29T00:40:22;11.20;9.10;7.50
42002;PMS7003;27693;50.506;30.832;2023-07-29T00:41:25;11.00;11.00;9.00
42002;PMS7003;27693;50.506;30.832;2023-07-29T00:42:28;9.20;9.00;7.70
42002;PMS7003;27693;50.506;30.832;2023-07-29T00:43:30;9.20;9.20;7.30
42002;PMS7003;27693;50.506;30.832;2023-07-29T00:44:33;8.30;6.70;5.70
42002;PMS7003;27693;50.506;30.832;2023-07-29T00:45:37;11.70;8.80;7.90
42002;PMS7003;27693;50.506;30.832;2023-07-29T00:46:42;11.30;9.50;8.00
42002;PMS7003;27693;50.506;30.832;2023-07-29T00:47:47;10.50;9.30;8.30
42002;PMS7003;27693;50.506;30.832;2023-07-29T00:48:52;10.30;9.10;7.80
42002;PMS7003;27693;50.506;30.832;2023-07-29T00:49:54;10.00;9.60;8.50
42002;PMS7003;27693;50.506;30.832;2023-07-29T00:50:58;9.90;9.60;8.30
42002;PMS7003;27693;50.506;30.832;2023-07-29T00:52:02;11.90;9.20;8.20
42002;PMS7003;27693;50.506;30.832;2023-07-29T00:53:05;12.40;10.20;9.00
42002;PMS7003;27693;50.506;30.832;2023-07-29T00:54:09;13.10;11.30;9.70
42002;PMS7003;27693;50.506;30.832;2023-07-29T00:55:11;10.70;10.60;9.50
42002;PMS7003;27693;50.506;30.832;2023-07-29T00:56:15;10.00;9.10;8.10
42002;PMS7003;27693;50.506;30.832;2023-07-29T00:57:18;12.60;10.80;8.80
42002;PMS7003;27693;50.506;30.832;2023-07-29T00:58:22;10.30;8.80;7.30
42002;PMS7003;27693;50.506;30.832;2023-07-29T00:59:25;12.10;11.00;9.70
42002;PMS7003;27693;50.506;30.832;2023-07-29T01:00:30;14.10;12.30;10.50
42002;PMS7003;27693;50.506;30.832;2023-07-29T01:01:32;10.80;9.90;8.50
42002;PMS7003;27693;50.506;30.832;2023-07-29T01:02:36;12.80;10.30;9.10
42002;PMS7003;27693;50.506;30.832;2023-07-29T01:03:39;6.90;6.10;4.60
42002;PMS7003;27693;50.506;30.832;2023-07-29T01:04:43;10.50;10.20;9.50
42002;PMS7003;27693;50.506;30.832;2023-07-29T01:10:26;11.60;11.00;9.20
42002;PMS7003;27693;50.506;30.832;2023-07-29T01:11:33;11.20;10.20;8.90
42002;PMS7003;27693;50.506;30.832;2023-07-29T01:12:41;12.40;10.80;9.40
42002;PMS7003;27693;50.506;30.832;2023-07-29T01:16:32;10.50;9.30;8.00
42002;PMS7003;27693;50.506;30.832;2023-07-29T01:17:49;11.10;8.90;7.90
42002;PMS7003;27693;50.506;30.832;2023-07-29T01:18:49;9.90;7.60;7.00
42002;PMS7003;27693;50.506;30.832;2023-07-29T01:20:04;9.40;8.60;7.50
42002;PMS7003;27693;50.506;30.832;2023-07-29T01:21:08;11.90;9.10;7.50
42002;PMS7003;27693;50.506;30.832;2023-07-29T01:22:13;12.20;11.20;9.10
42002;PMS7003;27693;50.506;30.832;2023-07-29T01:23:23;10.50;9.90;8.20
42002;PMS7003;27693;50.506;30.832;2023-07-29T01:24:28;10.50;9.70;8.70
42002;PMS7003;27693;50.506;30.832;2023-07-29T01:25:30;13.10;10.60;9.10
42002;PMS7003;27693;50.506;30.832;2023-07-29T01:26:33;7.50;6.40;5.80
42002;PMS7003;27693;50.506;30.832;2023-07-29T01:27:38;10.20;9.40;7.30
42002;PMS7003;27693;50.506;30.832;2023-07-29T01:28:41;11.40;8.40;7.30
42002;PMS7003;27693;50.506;30.832;2023-07-29T01:29:43;10.80;9.80;8.20
42002;PMS7003;27693;50.506;30.832;2023-07-29T01:30:46;9.70;9.60;7.90
42002;PMS7003;27693;50.506;30.832;2023-07-29T01:31:51;9.90;9.80;8.90
42002;PMS7003;27693;50.506;30.832;2023-07-29T01:33:04;10.20;8.50;7.40
42002;PMS7003;27693;50.506;30.832;2023-07-29T01:35:50;9.50;8.90;7.90
42002;PMS7003;27693;50.506;30.832;2023-07-29T01:36:57;11.90;10.30;8.60
42002;PMS7003;27693;50.506;30.832;2023-07-29T01:38:08;10.00;10.00;8.10
42002;PMS7003;27693;50.506;30.832;2023-07-29T01:39:12;9.20;7.30;7.00
42002;PMS7003;27693;50.506;30.832;2023-07-29T01:40:18;10.50;9.50;8.10
42002;PMS7003;27693;50.506;30.832;2023-07-29T01:41:24;10.60;9.40;8.90
42002;PMS7003;27693;50.506;30.832;2023-07-29T01:42:27;9.30;8.50;7.30
42002;PMS7003;27693;50.506;30.832;2023-07-29T01:43:32;10.20;8.80;7.70
42002;PMS7003;27693;50.506;30.832;2023-07-29T01:44:35;11.60;10.00;8.70
42002;PMS7003;27693;50.506;30.832;2023-07-29T01:45:38;8.70;7.60;7.40
42002;PMS7003;27693;50.506;30.832;2023-07-29T01:46:43;11.60;10.20;8.20
42002;PMS7003;27693;50.506;30.832;2023-07-29T01:47:46;11.20;9.00;7.50
42002;PMS7003;27693;50.506;30.832;2023-07-29T01:48:50;8.80;8.20;7.10
42002;PMS7003;27693;50.506;30.832;2023-07-29T01:49:52;9.50;8.80;7.50
42002;PMS7003;27693;50.506;30.832;2023-07-29T01:50:54;9.30;8.00;6.90
42002;PMS7003;27693;50.506;30.832;2023-07-29T01:51:57;8.10;7.70;6.50
42002;PMS7003;27693;50.506;30.832;2023-07-29T01:53:01;8.20;7.80;6.00
42002;PMS7003;27693;50.506;30.832;2023-07-29T01:54:03;7.30;6.80;5.50
42002;PMS7003;27693;50.506;30.832;2023-07-29T01:55:06;7.80;7.80;7.30
42002;PMS7003;27693;50.506;30.832;2023-07-29T01:56:09;9.00;7.80;7.50
42002;PMS7003;27693;50.506;30.832;2023-07-29T01:57:14;11.80;9.40;8.30
42002;PMS7003;27693;50.506;30.832;2023-07-29T01:58:17;8.64;8.18;7.18
42002;PMS7003;27693;50.506;30.832;2023-07-29T01:59:22;7.80;6.70;5.50
42002;PMS7003;27693;50.506;30.832;2023-07-29T02:00:24;9.30;9.30;7.60
42002;PMS7003;27693;50.506;30.832;2023-07-29T02:01:27;8.90;8.50;7.20
42002;PMS7003;27693;50.506;30.832;2023-07-29T02:02:30;6.09;6.09;5.45
42002;PMS7003;27693;50.506;30.832;2023-07-29T02:03:33;9.91;8.45;7.00
42002;PMS7003;27693;50.506;30.832;2023-07-29T02:04:35;6.60;6.40;5.30
42002;PMS7003;27693;50.506;30.832;2023-07-29T02:05:39;8.80;8.40;6.50
42002;PMS7003;27693;50.506;30.832;2023-07-29T02:06:42;7.30;7.10;6.40
42002;PMS7003;27693;50.506;30.832;2023-07-29T02:07:44;10.30;8.90;7.70
42002;PMS7003;27693;50.506;30.832;2023-07-29T02:08:46;7.00;7.00;5.60
42002;PMS7003;27693;50.506;30.832;2023-07-29T02:09:51;8.10;7.40;6.20
42002;PMS7003;27693;50.506;30.832;2023-07-29T02:10:53;7.50;5.70;4.70
42002;PMS7003;27693;50.506;30.832;2023-07-29T02:11:56;6.20;6.20;5.90
42002;PMS7003;27693;50.506;30.832;2023-07-29T02:12:59;7.00;6.00;5.40
42002;PMS7003;27693;50.506;30.832;2023-07-29T02:14:02;8.80;8.80;7.50
42002;PMS7003;27693;50.506;30.832;2023-07-29T02:15:05;7.82;6.45;5.64
42002;PMS7003;27693;50.506;30.832;2023-07-29T02:16:10;8.30;6.80;5.80
42002;PMS7003;27693;50.506;30.832;2023-07-29T02:17:12;6.90;6.90;6.10
42002;PMS7003;27693;50.506;30.832;2023-07-29T02:18:15;5.40;5.40;4.40
42002;PMS7003;27693;50.506;30.832;2023-07-29T02:19:18;7.30;7.30;6.00
42002;PMS7003;27693;50.506;30.832;2023-07-29T02:20:20;8.40;6.90;6.50
42002;PMS7003;27693;50.506;30.832;2023-07-29T02:21:24;6.30;6.30;5.30
42002;PMS7003;27693;50.506;30.832;2023-07-29T02:22:27;7.27;5.55;4.18
42002;PMS7003;27693;50.506;30.832;2023-07-29T02:23:29;8.20;7.30;6.10
42002;PMS7003;27693;50.506;30.832;2023-07-29T02:24:31;5.80;4.90;4.20
42002;PMS7003;27693;50.506;30.832;2023-07-29T02:25:37;5.00;5.00;3.90
42002;PMS7003;27693;50.506;30.832;2023-07-29T02:26:41;7.30;7.00;5.60
42002;PMS7003;27693;50.506;30.832;2023-07-29T02:27:43;6.80;5.90;4.70
42002;PMS7003;27693;50.506;30.832;2023-07-29T02:28:46;6.20;5.90;5.60
42002;PMS7003;27693;50.506;30.832;2023-07-29T02:29:49;5.73;5.27;4.09
42002;PMS7003;27693;50.506;30.832;2023-07-29T02:31:08;7.40;6.20;5.60
42002;PMS7003;27693;50.506;30.832;2023-07-29T02:32:00;5.40;5.40;4.90
42002;PMS7003;27693;50.506;30.832;2023-07-29T02:33:03;7.50;6.30;5.00
42002;PMS7003;27693;50.506;30.832;2023-07-29T02:34:06;6.64;6.00;4.91
42002;PMS7003;27693;50.506;30.832;2023-07-29T02:35:08;5.90;5.50;4.50
42002;PMS7003;27693;50.506;30.832;2023-07-29T02:36:13;7.50;6.90;5.90
42002;PMS7003;27693;50.506;30.832;2023-07-29T02:37:16;6.00;4.80;4.70
42002;PMS7003;27693;50.506;30.832;2023-07-29T02:38:19;6.00;6.00;5.45
42002;PMS7003;27693;50.506;30.832;2023-07-29T02:39:22;5.90;4.70;3.90
42002;PMS7003;27693;50.506;30.832;2023-07-29T02:40:26;5.50;5.50;4.20
42002;PMS7003;27693;50.506;30.832;2023-07-29T02:41:30;6.10;5.50;4.80
42002;PMS7003;27693;50.506;30.832;2023-07-29T02:42:33;5.73;5.73;4.27
42002;PMS7003;27693;50.506;30.832;2023-07-29T02:43:36;6.80;6.00;5.20
42002;PMS7003;27693;50.506;30.832;2023-07-29T02:44:40;7.70;7.30;5.70
42002;PMS7003;27693;50.506;30.832;2023-07-29T02:45:43;7.10;5.70;4.50
42002;PMS7003;27693;50.506;30.832;2023-07-29T02:46:47;7.60;6.90;5.90
42002;PMS7003;27693;50.506;30.832;2023-07-29T02:47:50;5.30;4.80;4.00
42002;PMS7003;27693;50.506;30.832;2023-07-29T02:48:53;5.50;5.50;4.10
42002;PMS7003;27693;50.506;30.832;2023-07-29T02:49:56;6.80;4.60;4.10
42002;PMS7003;27693;50.506;30.832;2023-07-29T02:50:59;7.09;7.09;6.00
42002;PMS7003;27693;50.506;30.832;2023-07-29T02:52:01;6.50;5.00;4.50
42002;PMS7003;27693;50.506;30.832;2023-07-29T02:53:04;7.20;5.70;5.00
42002;PMS7003;27693;50.506;30.832;2023-07-29T02:54:07;4.40;4.40;3.90
42002;PMS7003;27693;50.506;30.832;2023-07-29T02:55:09;5.70;5.70;5.00
42002;PMS7003;27693;50.506;30.832;2023-07-29T02:56:12;5.64;5.27;4.55
42002;PMS7003;27693;50.506;30.832;2023-07-29T02:57:15;6.70;5.70;5.30
42002;PMS7003;27693;50.506;30.832;2023-07-29T02:58:19;7.70;6.70;5.50
42002;PMS7003;27693;50.506;30.832;2023-07-29T02:59:21;9.20;5.40;4.40
42002;PMS7003;27693;50.506;30.832;2023-07-29T03:00:25;2.80;2.40;0.60
42002;PMS7003;27693;50.506;30.832;2023-07-29T03:01:28;5.64;5.09;4.45
42002;PMS7003;27693;50.506;30.832;2023-07-29T03:02:30;5.00;3.80;3.60
42002;PMS7003;27693;50.506;30.832;2023-07-29T03:03:33;6.60;6.10;5.10
42002;PMS7003;27693;50.506;30.832;2023-07-29T03:04:36;6.90;6.70;5.10
42002;PMS7003;27693;50.506;30.832;2023-07-29T03:05:39;6.30;5.30;4.90
42002;PMS7003;27693;50.506;30.832;2023-07-29T03:06:43;5.40;4.60;3.90
42002;PMS7003;27693;50.506;30.832;2023-07-29T03:07:45;5.36;4.00;3.91
42002;PMS7003;27693;50.506;30.832;2023-07-29T03:08:48;3.80;3.80;3.30
42002;PMS7003;27693;50.506;30.832;2023-07-29T03:09:50;5.50;4.60;4.30
42002;PMS7003;27693;50.506;30.832;2023-07-29T03:10:53;4.30;3.80;2.90
42002;PMS7003;27693;50.506;30.832;2023-07-29T03:11:56;7.10;5.80;5.30
42002;PMS7003;27693;50.506;30.832;2023-07-29T03:12:59;7.00;5.30;4.10
42002;PMS7003;27693;50.506;30.832;2023-07-29T03:14:01;7.20;6.10;5.90
42002;PMS7003;27693;50.506;30.832;2023-07-29T03:15:04;7.90;6.50;5.30
42002;PMS7003;27693;50.506;30.832;2023-07-29T03:16:08;6.40;5.80;5.00
42002;PMS7003;27693;50.506;30.832;2023-07-29T03:17:13;4.80;4.80;4.00
42002;PMS7003;27693;50.506;30.832;2023-07-29T03:18:15;7.20;6.30;5.40
42002;PMS7003;27693;50.506;30.832;2023-07-29T03:19:18;5.40;4.40;4.40
42002;PMS7003;27693;50.506;30.832;2023-07-29T03:20:21;8.10;6.70;5.70
42002;PMS7003;27693;50.506;30.832;2023-07-29T03:21:23;4.30;4.30;3.90
42002;PMS7003;27693;50.506;30.832;2023-07-29T03:22:26;6.60;5.70;5.00
42002;PMS7003;27693;50.506;30.832;2023-07-29T03:23:28;5.90;5.50;4.70
42002;PMS7003;27693;50.506;30.832;2023-07-29T03:24:32;5.80;5.80;4.50
42002;PMS7003;27693;50.506;30.832;2023-07-29T03:25:35;6.50;5.70;5.40
42002;PMS7003;27693;50.506;30.832;2023-07-29T03:26:37;2.60;2.60;1.50
42002;PMS7003;27693;50.506;30.832;2023-07-29T03:27:43;3.20;2.60;2.40
42002;PMS7003;27693;50.506;30.832;2023-07-29T03:28:46;6.20;6.20;5.70
42002;PMS7003;27693;50.506;30.832;2023-07-29T03:29:49;5.00;5.00;4.30
42002;PMS7003;27693;50.506;30.832;2023-07-29T03:30:54;7.50;6.00;4.70
42002;PMS7003;27693;50.506;30.832;2023-07-29T03:31:59;6.80;6.00;4.90
42002;PMS7003;27693;50.506;30.832;2023-07-29T03:33:01;6.00;5.80;4.90
42002;PMS7003;27693;50.506;30.832;2023-07-29T03:34:04;6.00;5.40;4.40
42002;PMS7003;27693;50.506;30.832;2023-07-29T03:35:08;3.00;3.00;1.80
42002;PMS7003;27693;50.506;30.832;2023-07-29T03:36:10;6.50;5.40;4.80
42002;PMS7003;27693;50.506;30.832;2023-07-29T03:37:13;4.90;4.90;4.40
42002;PMS7003;27693;50.506;30.832;2023-07-29T03:38:15;6.60;5.00;4.50
42002;PMS7003;27693;50.506;30.832;2023-07-29T03:39:17;6.30;4.40;3.80
42002;PMS7003;27693;50.506;30.832;2023-07-29T03:40:20;5.40;4.90;4.00
42002;PMS7003;27693;50.506;30.832;2023-07-29T03:41:22;5.30;5.30;4.00
42002;PMS7003;27693;50.506;30.832;2023-07-29T03:42:25;4.40;4.40;3.40
42002;PMS7003;27693;50.506;30.832;2023-07-29T03:43:27;5.80;4.60;4.00
42002;PMS7003;27693;50.506;30.832;2023-07-29T03:44:33;6.20;4.80;3.70
42002;PMS7003;27693;50.506;30.832;2023-07-29T03:45:39;5.00;5.00;4.10
42002;PMS7003;27693;50.506;30.832;2023-07-29T03:46:42;4.10;4.10;4.00
42002;PMS7003;27693;50.506;30.832;2023-07-29T03:47:45;5.20;3.20;3.00
42002;PMS7003;27693;50.506;30.832;2023-07-29T03:48:48;5.30;4.30;4.00
42002;PMS7003;27693;50.506;30.832;2023-07-29T03:49:50;2.90;2.90;1.90
42002;PMS7003;27693;50.506;30.832;2023-07-29T03:50:54;4.50;4.50;3.90
42002;PMS7003;27693;50.506;30.832;2023-07-29T03:51:57;6.70;5.50;4.60
42002;PMS7003;27693;50.506;30.832;2023-07-29T03:52:59;7.10;5.60;5.00
42002;PMS7003;27693;50.506;30.832;2023-07-29T03:54:02;4.30;4.30;3.60
42002;PMS7003;27693;50.506;30.832;2023-07-29T03:55:05;6.70;4.50;3.70
42002;PMS7003;27693;50.506;30.832;2023-07-29T03:56:08;6.10;4.90;3.40
42002;PMS7003;27693;50.506;30.832;2023-07-29T03:57:11;7.50;5.80;4.80
42002;PMS7003;27693;50.506;30.832;2023-07-29T03:58:13;8.30;6.10;4.50
42002;PMS7003;27693;50.506;30.832;2023-07-29T03:59:16;5.50;5.40;4.80
42002;PMS7003;27693;50.506;30.832;2023-07-29T04:00:19;4.80;3.70;3.00
42002;PMS7003;27693;50.506;30.832;2023-07-29T04:01:22;5.00;4.70;3.70
42002;PMS7003;27693;50.506;30.832;2023-07-29T04:02:26;5.80;5.60;5.10
42002;PMS7003;27693;50.506;30.832;2023-07-29T04:03:28;5.20;5.20;4.50
42002;PMS7003;27693;50.506;30.832;2023-07-29T04:04:32;6.20;4.60;4.20
42002;PMS7003;27693;50.506;30.832;2023-07-29T04:05:35;7.55;6.36;5.36
42002;PMS7003;27693;50.506;30.832;2023-07-29T04:06:37;2.70;2.70;2.20
42002;PMS7003;27693;50.506;30.832;2023-07-29T04:07:40;4.10;4.10;3.60
42002;PMS7003;27693;50.506;30.832;2023-07-29T04:08:43;5.60;4.20;4.20
42002;PMS7003;27693;50.506;30.832;2023-07-29T04:09:47;5.50;5.30;4.40
42002;PMS7003;27693;50.506;30.832;2023-07-29T04:10:49;8.60;5.10;4.00
42002;PMS7003;27693;50.506;30.832;2023-07-29T04:11:52;4.50;3.70;3.50
42002;PMS7003;27693;50.506;30.832;2023-07-29T04:12:55;3.50;3.50;2.50
42002;PMS7003;27693;50.506;30.832;2023-07-29T04:13:57;7.10;5.20;5.00
42002;PMS7003;27693;50.506;30.832;2023-07-29T04:15:01;6.50;5.90;4.60
42002;PMS7003;27693;50.506;30.832;2023-07-29T04:16:05;5.10;4.30;3.90
42002;PMS7003;27693;50.506;30.832;2023-07-29T04:17:07;5.90;4.70;3.70
42002;PMS7003;27693;50.506;30.832;2023-07-29T04:18:10;6.00;4.10;3.70
42002;PMS7003;27693;50.506;30.832;2023-07-29T04:19:13;5.40;4.10;4.00
42002;PMS7003;27693;50.506;30.832;2023-07-29T04:20:16;3.90;2.90;2.50
42002;PMS7003;27693;50.506;30.832;2023-07-29T04:21:18;3.10;2.90;2.40
42002;PMS7003;27693;50.506;30.832;2023-07-29T04:22:22;5.40;4.80;4.30
42002;PMS7003;27693;50.506;30.832;2023-07-29T04:23:24;6.30;5.40;5.10
42002;PMS7003;27693;50.506;30.832;2023-07-29T04:24:28;8.00;5.60;5.00
42002;PMS7003;27693;50.506;30.832;2023-07-29T04:25:30;6.20;5.50;4.60
42002;PMS7003;27693;50.506;30.832;2023-07-29T04:26:33;5.60;5.20;4.60
42002;PMS7003;27693;50.506;30.832;2023-07-29T04:27:36;7.45;5.64;5.55
42002;PMS7003;27693;50.506;30.832;2023-07-29T04:28:38;6.00;6.00;4.80
42002;PMS7003;27693;50.506;30.832;2023-07-29T04:29:41;6.40;5.50;5.10
42002;PMS7003;27693;50.506;30.832;2023-07-29T04:30:43;5.90;5.90;5.10
42002;PMS7003;27693;50.506;30.832;2023-07-29T04:31:47;5.40;4.70;3.40
42002;PMS7003;27693;50.506;30.832;2023-07-29T04:32:49;6.64;5.73;4.82
42002;PMS7003;27693;50.506;30.832;2023-07-29T04:33:53;6.60;4.40;4.20
42002;PMS7003;27693;50.506;30.832;2023-07-29T04:34:56;5.30;5.20;4.90
42002;PMS7003;27693;50.506;30.832;2023-07-29T04:35:58;5.30;5.00;3.70
42002;PMS7003;27693;50.506;30.832;2023-07-29T04:37:01;3.70;1.70;1.70
42002;PMS7003;27693;50.506;30.832;2023-07-29T04:38:03;6.40;4.60;4.10
42002;PMS7003;27693;50.506;30.832;2023-07-29T04:39:07;7.80;5.30;4.90
42002;PMS7003;27693;50.506;30.832;2023-07-29T04:40:10;7.10;5.70;4.10
42002;PMS7003;27693;50.506;30.832;2023-07-29T04:41:12;5.70;5.60;4.50
42002;PMS7003;27693;50.506;30.832;2023-07-29T04:42:16;6.50;5.30;4.50
42002;PMS7003;27693;50.506;30.832;2023-07-29T04:43:18;4.40;3.50;2.90
42002;PMS7003;27693;50.506;30.832;2023-07-29T04:44:21;3.00;2.40;2.40
42002;PMS7003;27693;50.506;30.832;2023-07-29T04:45:27;5.70;5.30;4.40
42002;PMS7003;27693;50.506;30.832;2023-07-29T04:46:32;5.30;3.70;3.10
42002;PMS7003;27693;50.506;30.832;2023-07-29T04:47:35;4.70;4.50;4.00
42002;PMS7003;27693;50.506;30.832;2023-07-29T04:48:37;5.10;4.60;3.80
42002;PMS7003;27693;50.506;30.832;2023-07-29T04:49:39;5.50;4.70;4.10
42002;PMS7003;27693;50.506;30.832;2023-07-29T04:50:43;5.40;4.70;3.80
42002;PMS7003;27693;50.506;30.832;2023-07-29T04:51:46;5.73;4.91;4.18
42002;PMS7003;27693;50.506;30.832;2023-07-29T04:52:49;5.64;4.45;4.18
42002;PMS7003;27693;50.506;30.832;2023-07-29T04:53:51;4.60;4.60;4.20
42002;PMS7003;27693;50.506;30.832;2023-07-29T04:54:54;5.30;5.00;4.30
42002;PMS7003;27693;50.506;30.832;2023-07-29T04:55:56;7.30;3.80;3.60
42002;PMS7003;27693;50.506;30.832;2023-07-29T04:56:59;4.80;3.80;3.60
42002;PMS7003;27693;50.506;30.832;2023-07-29T04:58:02;2.80;2.50;2.30
42002;PMS7003;27693;50.506;30.832;2023-07-29T04:59:05;2.50;2.50;2.50
42002;PMS7003;27693;50.506;30.832;2023-07-29T05:00:11;2.90;1.70;1.70
42002;PMS7003;27693;50.506;30.832;2023-07-29T05:01:13;5.00;4.10;4.00
42002;PMS7003;27693;50.506;30.832;2023-07-29T05:02:16;4.20;2.80;2.50
42002;PMS7003;27693;50.506;30.832;2023-07-29T05:03:19;4.60;3.90;3.00
42002;PMS7003;27693;50.506;30.832;2023-07-29T05:04:22;4.40;4.40;3.80
42002;PMS7003;27693;50.506;30.832;2023-07-29T05:05:24;3.50;3.50;3.20
42002;PMS7003;27693;50.506;30.832;2023-07-29T05:06:27;5.90;4.80;3.60
42002;PMS7003;27693;50.506;30.832;2023-07-29T05:07:31;4.80;3.40;2.60
42002;PMS7003;27693;50.506;30.832;2023-07-29T05:08:34;4.00;4.00;3.50
42002;PMS7003;27693;50.506;30.832;2023-07-29T05:09:36;4.70;4.20;3.70
42002;PMS7003;27693;50.506;30.832;2023-07-29T05:10:39;4.00;3.00;2.10
42002;PMS7003;27693;50.506;30.832;2023-07-29T05:11:42;2.80;2.80;2.10
42002;PMS7003;27693;50.506;30.832;2023-07-29T05:12:48;3.40;2.90;2.50
42002;PMS7003;27693;50.506;30.832;2023-07-29T05:13:50;4.30;3.70;2.90
42002;PMS7003;27693;50.506;30.832;2023-07-29T05:14:53;4.00;4.00;3.18
42002;PMS7003;27693;50.506;30.832;2023-07-29T05:15:55;5.60;4.40;3.90
42002;PMS7003;27693;50.506;30.832;2023-07-29T05:16:58;4.64;3.82;3.55
42002;PMS7003;27693;50.506;30.832;2023-07-29T05:18:01;8.18;5.45;4.55
42002;PMS7003;27693;50.506;30.832;2023-07-29T05:19:04;3.80;2.60;2.40
42002;PMS7003;27693;50.506;30.832;2023-07-29T05:20:08;4.00;4.00;3.40
42002;PMS7003;27693;50.506;30.832;2023-07-29T05:21:11;6.40;5.20;4.50
42002;PMS7003;27693;50.506;30.832;2023-07-29T05:22:16;3.10;3.10;3.00
42002;PMS7003;27693;50.506;30.832;2023-07-29T05:23:20;4.20;4.20;3.80
42002;PMS7003;27693;50.506;30.832;2023-07-29T05:24:22;4.20;1.70;1.70
42002;PMS7003;27693;50.506;30.832;2023-07-29T05:25:25;4.80;4.80;3.80
42002;PMS7003;27693;50.506;30.832;2023-07-29T05:26:28;2.90;2.90;2.70
42002;PMS7003;27693;50.506;30.832;2023-07-29T05:27:32;3.00;2.80;2.20
42002;PMS7003;27693;50.506;30.832;2023-07-29T05:28:35;1.70;1.70;1.70
42002;PMS7003;27693;50.506;30.832;2023-07-29T05:29:38;3.50;3.10;2.90
42002;PMS7003;27693;50.506;30.832;2023-07-29T05:30:40;4.10;3.30;2.70
42002;PMS7003;27693;50.506;30.832;2023-07-29T05:31:42;4.10;3.90;3.60
42002;PMS7003;27693;50.506;30.832;2023-07-29T05:32:45;3.00;3.00;2.73
42002;PMS7003;27693;50.506;30.832;2023-07-29T05:33:48;3.20;2.80;2.40
42002;PMS7003;27693;50.506;30.832;2023-07-29T05:34:51;3.90;3.10;3.00
42002;PMS7003;27693;50.506;30.832;2023-07-29T05:35:54;4.00;3.30;2.40
42002;PMS7003;27693;50.506;30.832;2023-07-29T05:36:56;2.40;1.50;1.40
42002;PMS7003;27693;50.506;30.832;2023-07-29T05:38:01;3.00;3.00;2.70
42002;PMS7003;27693;50.506;30.832;2023-07-29T05:39:05;4.60;2.40;2.10
42002;PMS7003;27693;50.506;30.832;2023-07-29T05:40:09;2.00;2.00;2.00
42002;PMS7003;27693;50.506;30.832;2023-07-29T05:41:12;3.60;3.00;2.30
42002;PMS7003;27693;50.506;30.832;2023-07-29T05:42:15;3.90;3.90;3.50
42002;PMS7003;27693;50.506;30.832;2023-07-29T05:43:17;4.60;2.50;2.30
42002;PMS7003;27693;50.506;30.832;2023-07-29T05:44:20;4.00;4.00;3.50
42002;PMS7003;27693;50.506;30.832;2023-07-29T05:45:23;2.70;2.70;2.30
42002;PMS7003;27693;50.506;30.832;2023-07-29T05:46:26;4.09;3.36;2.36
42002;PMS7003;27693;50.506;30.832;2023-07-29T05:47:28;2.40;2.10;1.80
42002;PMS7003;27693;50.506;30.832;2023-07-29T05:48:30;2.60;2.60;2.30
42002;PMS7003;27693;50.506;30.832;2023-07-29T05:49:33;0.80;0.80;0.00
42002;PMS7003;27693;50.506;30.832;2023-07-29T05:50:36;3.27;3.27;2.91
42002;PMS7003;27693;50.506;30.832;2023-07-29T05:51:39;3.20;3.20;2.50
42002;PMS7003;27693;50.506;30.832;2023-07-29T05:52:41;3.50;3.50;3.00
42002;PMS7003;27693;50.506;30.832;2023-07-29T05:53:44;1.00;1.00;1.00
42002;PMS7003;27693;50.506;30.832;2023-07-29T05:54:47;2.90;2.90;2.50
42002;PMS7003;27693;50.506;30.832;2023-07-29T05:55:49;4.40;3.80;3.50
42002;PMS7003;27693;50.506;30.832;2023-07-29T05:56:52;3.09;3.09;2.91
42002;PMS7003;27693;50.506;30.832;2023-07-29T05:57:55;2.55;2.55;2.09
42002;PMS7003;27693;50.506;30.832;2023-07-29T05:58:59;1.70;1.70;1.70
42002;PMS7003;27693;50.506;30.832;2023-07-29T06:00:03;2.70;2.50;2.40
42002;PMS7003;27693;50.506;30.832;2023-07-29T06:01:08;3.90;3.20;3.00
42002;PMS7003;27693;50.506;30.832;2023-07-29T06:02:12;2.60;2.40;1.90
42002;PMS7003;27693;50.506;30.832;2023-07-29T06:03:14;3.50;3.50;3.20
42002;PMS7003;27693;50.506;30.832;2023-07-29T06:04:17;3.20;2.80;2.30
42002;PMS7003;27693;50.506;30.832;2023-07-29T06:05:20;2.00;2.00;1.90
42002;PMS7003;27693;50.506;30.832;2023-07-29T06:06:22;4.00;3.50;2.90
42002;PMS7003;27693;50.506;30.832;2023-07-29T06:07:25;1.30;1.00;0.90
42002;PMS7003;27693;50.506;30.832;2023-07-29T06:08:29;2.20;2.20;2.00
42002;PMS7003;27693;50.506;30.832;2023-07-29T06:09:35;3.10;3.00;2.80
42002;PMS7003;27693;50.506;30.832;2023-07-29T06:10:38;3.00;3.00;2.90
42002;PMS7003;27693;50.506;30.832;2023-07-29T06:11:41;2.20;2.20;1.90
42002;PMS7003;27693;50.506;30.832;2023-07-29T06:12:43;3.30;3.30;2.70